createdAt,value
2023-04-25T00:01:50.847Z,1.97
2023-04-25T00:04:37.846Z,0.83
2023-04-25T00:07:25.375Z,0.80
2023-04-25T00:10:12.303Z,1.23
2023-04-25T00:12:59.326Z,1.33
2023-04-25T00:15:46.192Z,1.87
2023-04-25T00:18:33.308Z,0.90
2023-04-25T00:21:20.271Z,1.37
2023-04-25T00:24:07.891Z,1.30
2023-04-25T00:26:55.998Z,1.10
2023-04-25T00:29:42.995Z,0.93
2023-04-25T00:32:29.926Z,1.00
2023-04-25T00:35:17.877Z,2.10
2023-04-25T00:38:04.908Z,1.20
2023-04-25T00:40:52.022Z,1.70
2023-04-25T00:43:38.968Z,1.87
2023-04-25T00:46:26.251Z,1.87
2023-04-25T00:49:13.102Z,1.30
2023-04-25T00:52:00.264Z,1.37
2023-04-25T00:54:47.181Z,1.03
2023-04-25T00:57:34.453Z,2.03
2023-04-25T01:00:21.944Z,0.97
2023-04-25T01:03:09.446Z,1.50
2023-04-25T01:05:56.516Z,2.73
2023-04-25T01:08:45.582Z,1.40
2023-04-25T01:11:32.492Z,1.20
2023-04-25T01:14:19.618Z,2.93
2023-04-25T01:17:07.488Z,1.47
2023-04-25T01:19:55.386Z,1.43
2023-04-25T01:22:42.631Z,1.37
2023-04-25T01:25:30.174Z,1.47
2023-04-25T01:28:18.833Z,1.87
2023-04-25T01:31:06.208Z,1.90
2023-04-25T01:33:53.661Z,2.17
2023-04-25T01:36:42.611Z,1.43
2023-04-25T01:39:30.101Z,1.67
2023-04-25T01:42:17.892Z,1.27
2023-04-25T01:45:04.855Z,1.53
2023-04-25T01:47:51.994Z,1.90
2023-04-25T01:50:40.127Z,1.80
2023-04-25T01:53:27.331Z,2.13
2023-04-25T01:56:14.960Z,1.20
2023-04-25T01:59:02.170Z,1.70
2023-04-25T02:02:04.325Z,1.37
2023-04-25T02:04:53.274Z,1.50
2023-04-25T02:07:42.979Z,1.50
2023-04-25T02:10:30.906Z,2.97
2023-04-25T02:13:34.173Z,2.10
2023-04-25T02:16:25.235Z,1.37
2023-04-25T02:19:12.206Z,2.07
2023-04-25T02:21:59.196Z,1.63
2023-04-25T02:24:46.143Z,2.40
2023-04-25T02:27:33.042Z,2.53
2023-04-25T02:30:20.081Z,3.43
2023-04-25T02:33:07.594Z,1.87
2023-04-25T02:35:56.494Z,3.03
2023-04-25T02:38:43.334Z,1.50
2023-04-25T02:41:30.530Z,3.00
2023-04-25T02:44:17.510Z,1.90
2023-04-25T02:47:05.948Z,2.83
2023-04-25T02:49:52.956Z,2.27
2023-04-25T02:52:39.891Z,1.77
2023-04-25T02:55:34.854Z,2.23
2023-04-25T02:58:25.409Z,1.50
2023-04-25T03:01:14.028Z,2.00
2023-04-25T03:04:01.386Z,2.30
2023-04-25T03:06:48.444Z,2.63
2023-04-25T03:09:35.432Z,1.67
2023-04-25T03:12:23.004Z,1.50
2023-04-25T03:15:10.617Z,2.27
2023-04-25T03:17:57.577Z,1.93
2023-04-25T03:20:44.795Z,1.77
2023-04-25T03:23:31.729Z,1.73
2023-04-25T03:26:18.810Z,5.63
2023-04-25T03:29:05.753Z,2.23
2023-04-25T03:31:54.017Z,3.33
2023-04-25T03:34:40.859Z,3.20
2023-04-25T03:37:28.208Z,4.00
2023-04-25T03:40:15.174Z,1.80
2023-04-25T03:43:29.072Z,7.57
2023-04-25T03:46:22.237Z,3.77
2023-04-25T03:49:09.934Z,2.30
2023-04-25T03:52:14.008Z,2.20
2023-04-25T03:55:01.770Z,2.77
2023-04-25T03:57:48.932Z,1.97
2023-04-25T04:00:36.859Z,3.10
2023-04-25T04:03:24.040Z,2.20
2023-04-25T04:06:11.940Z,2.23
2023-04-25T04:09:05.044Z,2.07
2023-04-25T04:11:56.929Z,2.30
2023-04-25T04:14:44.018Z,2.87
2023-04-25T04:17:31.392Z,3.33
2023-04-25T04:20:19.019Z,2.37
2023-04-25T04:23:05.949Z,2.00
2023-04-25T04:25:52.750Z,3.20
2023-04-25T04:28:52.441Z,2.67
2023-04-25T04:32:05.361Z,3.27
2023-04-25T04:34:53.600Z,3.83
2023-04-25T04:37:42.090Z,2.73
2023-04-25T04:40:32.363Z,3.63
2023-04-25T04:43:37.762Z,7.03
2023-04-25T04:46:27.647Z,2.43
2023-04-25T04:49:32.360Z,3.00
2023-04-25T04:52:37.911Z,3.80
2023-04-25T04:55:45.114Z,2.50
2023-04-25T04:58:43.707Z,4.10
2023-04-25T05:01:42.939Z,1.60
2023-04-25T05:04:45.399Z,3.90
2023-04-25T05:07:41.199Z,4.57
2023-04-25T05:10:41.198Z,3.60
2023-04-25T05:13:48.298Z,4.10
2023-04-25T05:16:55.700Z,1.70
2023-04-25T05:20:07.304Z,3.70
2023-04-25T05:23:12.859Z,3.67
2023-04-25T05:26:06.169Z,3.20
2023-04-25T05:29:07.669Z,3.40
2023-04-25T05:32:02.661Z,3.47
2023-04-25T05:34:50.802Z,4.83
2023-04-25T05:37:44.187Z,1.70
2023-04-25T05:40:33.805Z,1.70
2023-04-25T05:43:40.876Z,4.80
2023-04-25T05:46:41.291Z,1.70
2023-04-25T05:50:06.636Z,3.50
2023-04-25T05:53:12.101Z,2.83
2023-04-25T05:56:01.642Z,2.13
2023-04-25T05:58:49.677Z,2.57
2023-04-25T06:01:36.714Z,4.30
2023-04-25T06:04:24.238Z,2.07
2023-04-25T06:07:11.298Z,4.33
2023-04-25T06:09:58.513Z,2.53
2023-04-25T06:12:46.221Z,2.43
2023-04-25T06:15:35.669Z,2.37
2023-04-25T06:18:22.797Z,3.43
2023-04-25T06:21:10.210Z,2.83
2023-04-25T06:23:57.687Z,4.73
2023-04-25T06:26:44.775Z,4.93
2023-04-25T06:29:32.035Z,1.33
2023-04-25T06:32:19.142Z,2.10
2023-04-25T06:35:06.075Z,2.10
2023-04-25T06:37:54.264Z,4.37
2023-04-25T06:40:43.426Z,4.03
2023-04-25T06:43:31.695Z,4.43
2023-04-25T06:46:36.855Z,3.70
2023-04-25T06:49:24.928Z,3.70
2023-04-25T06:52:12.119Z,2.30
2023-04-25T06:54:59.819Z,1.57
2023-04-25T06:58:02.395Z,7.47
2023-04-25T07:01:27.866Z,4.30
2023-04-25T07:04:15.682Z,2.60
2023-04-25T07:07:12.283Z,1.50
2023-04-25T11:59:17.757Z,5.10
2023-04-25T12:01:51.633Z,4.50
2023-04-25T12:04:26.253Z,5.20
2023-04-25T12:06:55.971Z,5.20
2023-04-25T12:09:53.784Z,4.47
2023-04-25T12:12:40.586Z,5.40
2023-04-25T12:15:32.018Z,6.07
2023-04-25T12:18:18.912Z,6.33
2023-04-25T12:21:06.092Z,5.57
2023-04-25T12:23:52.991Z,5.37
2023-04-25T12:26:40.245Z,6.10
2023-04-25T12:32:27.261Z,6.17
2023-04-25T12:35:14.221Z,6.17
2023-04-25T12:38:01.349Z,6.10
2023-04-25T12:40:48.126Z,5.87
2023-04-25T12:43:35.232Z,6.17
2023-04-25T12:46:22.461Z,6.40
2023-04-25T12:49:18.602Z,6.20
2023-04-25T12:52:06.266Z,7.10
2023-04-25T12:54:53.299Z,6.53
2023-04-25T12:57:40.133Z,6.00
2023-04-25T13:00:27.859Z,5.60
2023-04-25T13:03:15.009Z,7.10
2023-04-25T13:06:02.265Z,6.20
2023-04-25T13:08:49.855Z,5.47
2023-04-25T13:11:37.040Z,5.90
2023-04-25T13:14:23.928Z,4.90
2023-04-25T13:17:10.915Z,6.23
2023-04-25T13:19:57.696Z,3.87
2023-04-25T13:22:44.817Z,5.20
2023-04-25T13:25:31.685Z,4.07
2023-04-25T13:28:18.736Z,4.80
2023-04-25T13:31:07.052Z,2.63
2023-04-25T13:33:54.066Z,3.57
2023-04-25T13:36:41.223Z,2.67
2023-04-25T13:39:28.154Z,3.20
2023-04-25T13:42:15.115Z,3.33
2023-04-25T13:45:02.009Z,3.27
2023-04-25T13:47:49.186Z,4.27
2023-04-25T13:50:36.213Z,3.37
2023-04-25T13:53:23.140Z,3.77
2023-04-25T13:56:11.087Z,4.43
2023-04-25T13:58:58.509Z,3.30
2023-04-25T14:01:45.577Z,2.97
2023-04-25T14:04:32.781Z,3.47
2023-04-25T14:07:19.910Z,3.00
2023-04-25T14:10:06.950Z,2.53
2023-04-25T14:12:54.266Z,2.63
2023-04-25T14:15:41.263Z,3.77
2023-04-25T14:18:28.281Z,3.07
2023-04-25T14:21:15.281Z,3.03
2023-04-25T14:24:02.300Z,3.40
2023-04-25T14:26:49.258Z,3.27
2023-04-25T14:29:36.481Z,3.43
2023-04-25T14:32:23.392Z,3.20
2023-04-25T14:35:10.320Z,4.23
2023-04-25T14:37:57.298Z,4.20
2023-04-25T14:40:44.285Z,3.90
2023-04-25T14:43:31.256Z,3.70
2023-04-25T14:46:18.254Z,3.30
2023-04-25T14:49:05.328Z,2.47
2023-04-25T14:51:52.290Z,2.47
2023-04-25T14:54:39.268Z,2.90
2023-04-25T14:57:26.194Z,2.67
2023-04-25T15:00:13.117Z,2.27
2023-04-25T15:03:00.291Z,2.63
2023-04-25T15:05:47.469Z,2.57
2023-04-25T15:08:34.376Z,2.70
2023-04-25T15:11:21.612Z,2.50
2023-04-25T15:14:08.556Z,3.60
2023-04-25T15:16:55.586Z,2.80
2023-04-25T15:19:42.543Z,1.93
2023-04-25T15:22:29.587Z,2.50
2023-04-25T15:25:16.554Z,2.30
2023-04-25T15:28:03.391Z,2.40
2023-04-25T15:30:50.397Z,1.60
2023-04-25T15:33:37.225Z,2.33
2023-04-25T15:36:24.411Z,1.90
2023-04-25T15:39:11.301Z,2.17
2023-04-25T15:41:59.933Z,1.93
2023-04-25T15:44:46.861Z,1.57
2023-04-25T15:47:33.836Z,2.70
2023-04-25T15:50:20.758Z,2.23
2023-04-25T15:53:09.505Z,1.47
2023-04-25T15:55:56.335Z,2.43
2023-04-25T15:58:43.534Z,1.23
2023-04-25T16:01:31.437Z,2.10
2023-04-25T16:04:19.096Z,1.50
2023-04-25T16:07:06.217Z,2.20
2023-04-25T16:09:53.310Z,1.23
2023-04-25T16:12:40.235Z,1.80
2023-04-25T16:15:27.653Z,1.47
2023-04-25T16:18:14.620Z,1.50
2023-04-25T16:21:01.640Z,1.43
2023-04-25T16:23:48.701Z,1.10
2023-04-25T16:26:35.727Z,1.33
2023-04-25T16:29:25.637Z,1.87
2023-04-25T16:32:12.771Z,1.47
2023-04-25T16:34:59.741Z,1.23
2023-04-25T16:37:46.922Z,1.50
2023-04-25T16:40:33.961Z,1.03
2023-04-25T16:43:20.814Z,1.30
2023-04-25T16:46:07.682Z,1.23
2023-04-25T16:48:54.620Z,1.33
2023-04-25T16:51:41.566Z,1.33
2023-04-25T16:54:28.453Z,1.70
2023-04-25T16:57:15.289Z,1.13
2023-04-25T17:00:02.083Z,1.10
2023-04-25T17:02:49.160Z,2.63
2023-04-25T17:05:36.136Z,1.60
2023-04-25T17:08:23.476Z,1.23
2023-04-25T17:11:10.736Z,2.00
2023-04-25T17:13:57.867Z,1.27
2023-04-25T17:16:55.199Z,1.13
2023-04-25T17:19:42.135Z,1.20
2023-04-25T17:22:29.344Z,1.30
2023-04-25T17:25:16.276Z,2.13
2023-04-25T17:28:03.277Z,1.67
2023-04-25T17:30:50.521Z,1.87
2023-04-25T17:33:37.396Z,1.50
2023-04-25T17:36:24.537Z,2.23
2023-04-25T17:39:11.433Z,1.93
2023-04-25T17:42:00.761Z,2.23
2023-04-25T17:44:47.975Z,1.47
2023-04-25T17:47:34.929Z,1.80
2023-04-25T17:50:22.125Z,2.23
2023-04-25T17:53:09.364Z,3.50
2023-04-25T17:55:56.332Z,1.40
2023-04-25T17:58:43.178Z,1.87
2023-04-25T18:01:30.198Z,1.70
2023-04-25T18:04:17.133Z,1.37
2023-04-25T18:07:04.039Z,1.67
2023-04-25T18:09:51.161Z,1.60
2023-04-25T18:12:38.200Z,1.47
2023-04-25T18:15:25.623Z,1.27
2023-04-25T18:18:12.587Z,1.90
2023-04-25T18:20:59.678Z,1.83
2023-04-25T18:23:47.047Z,1.57
2023-04-25T18:26:34.234Z,1.27
2023-04-25T18:29:32.235Z,1.33
2023-04-25T18:32:20.309Z,1.27
2023-04-25T18:35:07.247Z,1.13
2023-04-25T18:37:54.249Z,1.40
2023-04-25T18:40:50.279Z,0.93
2023-04-25T18:43:43.725Z,1.07
2023-04-25T18:46:31.280Z,1.03
2023-04-25T18:49:18.768Z,1.23
2023-04-25T18:52:05.656Z,0.87
2023-04-25T18:54:52.568Z,1.30
2023-04-25T18:57:39.616Z,1.40
2023-04-25T19:00:27.414Z,1.77
2023-04-25T19:03:14.507Z,1.73
2023-04-25T19:06:01.425Z,1.07
2023-04-25T19:08:48.879Z,1.07
2023-04-25T19:11:36.638Z,1.43
2023-04-25T19:14:23.709Z,1.00
2023-04-25T19:17:10.608Z,1.57
2023-04-25T19:19:57.719Z,1.10
2023-04-25T19:22:44.555Z,1.50
2023-04-25T19:25:31.512Z,1.23
2023-04-25T19:28:18.496Z,1.37
2023-04-25T19:31:05.495Z,1.33
2023-04-25T19:33:52.892Z,2.03
2023-04-25T19:36:40.115Z,2.20
2023-04-25T19:39:27.735Z,1.13
2023-04-25T19:42:14.604Z,0.77
2023-04-25T19:45:01.595Z,1.43
2023-04-25T19:47:48.446Z,0.93
2023-04-25T19:50:35.443Z,0.77
2023-04-25T19:53:22.337Z,1.13
2023-04-25T19:56:09.350Z,0.83
2023-04-25T19:58:56.213Z,1.07
2023-04-25T20:01:43.078Z,1.40
2023-04-25T20:04:30.021Z,1.30
2023-04-25T20:07:17.154Z,0.77
2023-04-25T20:10:03.948Z,1.00
2023-04-25T20:12:50.879Z,0.90
2023-04-25T20:15:38.713Z,0.90
2023-04-25T20:18:25.615Z,0.97
2023-04-25T20:21:14.430Z,1.23
2023-04-25T20:24:01.370Z,1.03
2023-04-25T20:26:48.974Z,0.60
2023-04-25T20:29:35.963Z,1.07
2023-04-25T20:32:23.001Z,0.70
2023-04-25T20:35:09.890Z,1.07
2023-04-25T20:37:57.290Z,0.67
2023-04-25T20:40:44.289Z,1.13
2023-04-25T20:43:31.117Z,1.23
2023-04-25T20:46:19.793Z,0.70
2023-04-25T20:49:06.828Z,0.77
2023-04-25T20:51:54.936Z,1.30
2023-04-25T20:54:41.948Z,0.70
2023-04-25T20:57:28.944Z,1.03
2023-04-25T21:00:15.834Z,0.90
2023-04-25T21:03:02.972Z,1.00
2023-04-25T21:05:49.993Z,1.60
2023-04-25T21:08:36.908Z,1.87
2023-04-25T21:11:23.866Z,1.40
2023-04-25T21:14:10.722Z,1.50
2023-04-25T21:16:57.714Z,1.10
2023-04-25T21:19:44.677Z,1.53
2023-04-25T21:22:31.683Z,2.33
2023-04-25T21:25:18.627Z,0.80
2023-04-25T21:28:09.154Z,1.33
2023-04-25T21:30:56.285Z,1.67
2023-04-25T21:33:43.209Z,1.50
2023-04-25T21:36:30.030Z,1.10
2023-04-25T21:39:17.050Z,1.60
2023-04-25T21:42:04.083Z,1.77
2023-04-25T21:44:51.562Z,1.20
2023-04-25T21:47:38.615Z,0.90
2023-04-25T21:50:25.775Z,1.47
2023-04-25T21:53:12.749Z,1.53
2023-04-25T21:55:59.787Z,0.93
2023-04-25T21:58:46.742Z,1.47
2023-04-25T22:01:33.706Z,1.20
2023-04-25T22:04:20.883Z,1.47
2023-04-25T22:07:07.985Z,1.67
2023-04-25T22:09:55.929Z,2.07
2023-04-25T22:12:42.954Z,1.00
2023-04-25T22:15:30.581Z,0.80
2023-04-25T22:18:21.145Z,0.80
2023-04-25T22:21:08.077Z,1.40
2023-04-25T22:23:54.985Z,1.13
2023-04-25T22:26:41.993Z,1.30
2023-04-25T22:29:29.535Z,0.87
2023-04-25T22:32:16.515Z,1.00
2023-04-25T22:35:03.393Z,0.90
2023-04-25T22:37:50.465Z,1.93
2023-04-25T22:40:37.341Z,0.90
2023-04-25T22:43:24.316Z,1.03
2023-04-25T22:46:11.245Z,1.30
2023-04-25T22:48:58.372Z,1.27
2023-04-25T22:51:45.189Z,1.27
2023-04-25T22:54:32.271Z,1.10
2023-04-25T22:57:19.191Z,1.70
2023-04-25T23:00:06.120Z,0.90
2023-04-25T23:02:53.066Z,1.23
2023-04-25T23:05:40.598Z,1.63
2023-04-25T23:08:27.460Z,2.20
2023-04-25T23:11:14.971Z,1.50
2023-04-25T23:14:01.969Z,1.70
2023-04-25T23:16:49.017Z,1.10
2023-04-25T23:19:35.989Z,1.63
2023-04-25T23:22:23.049Z,1.23
2023-04-25T23:25:10.166Z,1.40
2023-04-25T23:27:57.386Z,2.00
2023-04-25T23:30:44.349Z,1.53
2023-04-25T23:33:31.318Z,1.40
2023-04-25T23:36:18.206Z,1.43
2023-04-25T23:39:05.154Z,2.60
2023-04-25T23:41:51.998Z,1.60
2023-04-25T23:44:39.133Z,1.47
2023-04-25T23:47:26.023Z,1.97
2023-04-25T23:50:13.138Z,1.73
2023-04-25T23:53:00.138Z,2.57
2023-04-25T23:55:47.734Z,1.87
2023-04-25T23:58:34.667Z,2.70
